Time;durP1;ratioP1;P1;durP2;ratioP2;P2;SDS_P1;SDS_P2;PMS_P1;PMS_P2;Temp;Humidity;BMP_temperature;BMP_pressure;BME280_temperature;BME280_humidity;BME280_pressure;Samples;Min_cycle;Max_cycle;Signal;HPM_P1;HPM_P2
2023/09/23 00:01:57;;;;;;;13.68;5.50;;;;;;;21.16;100.00;65213.56;5030917;28;20234;-55
2023/09/23 00:04:22;;;;;;;13.85;5.38;;;;;;;21.08;100.00;65202.69;5029507;28;20240;-51
2023/09/23 00:06:49;;;;;;;14.48;5.88;;;;;;;21.07;100.00;65204.16;5030626;28;20218;-51
2023/09/23 00:09:17;;;;;;;14.23;5.45;;;;;;;21.03;100.00;65199.72;5030697;28;20208;-52
2023/09/23 00:11:43;;;;;;;13.55;6.28;;;;;;;21.31;100.00;65228.13;5029523;28;20637;-55
2023/09/23 00:14:11;;;;;;;23.00;6.72;;;;;;;20.99;100.00;65192.19;5029441;28;20194;-51
2023/09/23 00:16:36;;;;;;;18.33;6.25;;;;;;;20.82;100.00;65174.50;5030520;28;20731;-52
2023/09/23 00:19:02;;;;;;;13.07;5.95;;;;;;;20.90;100.00;65185.91;5029274;28;20246;-55
2023/09/23 00:21:28;;;;;;;13.85;5.35;;;;;;;20.98;100.00;65193.63;5030907;28;20301;-51
2023/09/23 00:23:55;;;;;;;13.90;5.72;;;;;;;21.20;100.00;65213.41;5030837;28;20201;-50
2023/09/23 00:26:22;;;;;;;13.38;5.40;;;;;;;21.15;100.00;65213.00;5029220;28;20306;-52
2023/09/23 00:28:48;;;;;;;17.98;6.35;;;;;;;20.99;100.00;65192.72;5030339;28;20222;-56
2023/09/23 00:31:14;;;;;;;13.82;5.47;;;;;;;20.99;100.00;65195.28;5029254;28;20194;-61
2023/09/23 00:33:41;;;;;;;13.57;5.75;;;;;;;21.12;100.00;65207.13;5030489;28;20295;-51
2023/09/23 00:36:10;;;;;;;13.77;4.65;;;;;;;21.18;100.00;65215.75;5030258;28;20226;-51
2023/09/23 00:38:37;;;;;;;8.00;4.57;;;;;;;21.00;100.00;65193.28;5030330;28;20197;-50
2023/09/23 00:41:04;;;;;;;12.10;5.63;;;;;;;20.99;100.00;65192.72;5030303;28;20202;-51
2023/09/23 00:43:33;;;;;;;9.65;5.13;;;;;;;20.96;100.00;65189.41;5030496;28;20210;-52
2023/09/23 00:46:00;;;;;;;10.20;4.93;;;;;;;20.91;100.00;65189.00;5030478;28;20284;-56
2023/09/23 00:48:26;;;;;;;10.02;4.93;;;;;;;20.78;100.00;65166.94;5030277;28;20220;-51
2023/09/23 00:50:54;;;;;;;18.02;6.28;;;;;;;20.89;100.00;65181.66;5030244;28;20301;-52
2023/09/23 00:53:21;;;;;;;14.88;5.15;;;;;;;20.78;100.00;65169.50;5030081;28;20202;-50
2023/09/23 00:55:57;;;;;;;15.20;5.95;;;;;;;20.87;100.00;65182.56;5030262;28;20286;-56
2023/09/23 00:58:26;;;;;;;11.45;5.38;;;;;;;20.69;100.00;65162.13;5030197;28;20297;-52
2023/09/23 01:00:54;;;;;;;12.05;5.07;;;;;;;20.82;100.00;65173.94;5030179;28;20231;-52
2023/09/23 01:03:21;;;;;;;12.63;5.60;;;;;;;20.76;100.00;65170.44;5029891;28;20187;-51
2023/09/23 01:05:49;;;;;;;9.68;4.97;;;;;;;20.58;100.00;65147.41;5030002;28;20277;-55
2023/09/23 01:08:22;;;;;;;9.73;5.65;;;;;;;20.52;100.00;65140.78;5029983;28;20684;-51
2023/09/23 01:10:48;;;;;;;10.70;5.40;;;;;;;20.23;100.00;65108.72;5031803;28;20202;-54
2023/09/23 01:13:14;;;;;;;16.08;6.18;;;;;;;20.43;100.00;65128.25;5033379;28;20210;-52
2023/09/23 01:15:41;;;;;;;14.23;5.65;;;;;;;20.21;100.00;65109.63;5033500;28;20194;-51
2023/09/23 01:18:13;;;;;;;12.40;5.50;;;;;;;20.46;100.00;65134.69;5033379;28;20711;-51
2023/09/23 01:20:42;;;;;;;20.90;5.65;;;;;;;20.35;100.00;65121.97;5032051;28;20758;-50
2023/09/23 01:23:11;;;;;;;12.00;5.60;;;;;;;20.09;100.00;65094.34;5033293;28;20216;-50
2023/09/23 01:25:39;;;;;;;16.73;5.95;;;;;;;20.36;100.00;65125.66;5032006;28;20263;-52
2023/09/23 01:28:11;;;;;;;19.90;10.43;;;;;;;20.42;100.00;65129.72;5032440;28;20744;-56
2023/09/23 01:30:37;;;;;;;20.85;8.80;;;;;;;20.12;100.00;65096.56;5033347;28;20213;-51
2023/09/23 01:33:07;;;;;;;14.02;6.13;;;;;;;20.02;100.00;65086.06;5031738;28;20198;-51
2023/09/23 01:35:33;;;;;;;12.18;5.53;;;;;;;20.13;100.00;65098.22;5033134;28;20252;-51
2023/09/23 01:37:59;;;;;;;12.38;5.88;;;;;;;19.88;100.00;65071.16;5033157;28;20297;-51
2023/09/23 01:40:29;;;;;;;14.23;6.10;;;;;;;19.82;100.00;65066.53;5031852;28;20205;-52
2023/09/23 01:42:55;;;;;;;16.55;6.22;;;;;;;19.91;100.00;65077.03;5033216;28;20209;-52
2023/09/23 01:45:22;;;;;;;13.60;5.45;;;;;;;20.27;100.00;65116.25;5033188;28;20277;-52
2023/09/23 01:47:49;;;;;;;15.60;5.72;;;;;;;20.13;100.00;65102.78;5032024;28;20221;-50
2023/09/23 01:50:18;;;;;;;15.55;5.75;;;;;;;19.77;100.00;65058.44;5033129;28;20202;-51
2023/09/23 01:52:45;;;;;;;17.70;6.63;;;;;;;20.03;100.00;65085.16;5033259;28;20214;-52
2023/09/23 01:55:12;;;;;;;14.57;6.03;;;;;;;19.95;100.00;65081.44;5031620;28;20182;-52
2023/09/23 01:57:40;;;;;;;15.10;6.35;;;;;;;20.19;100.00;65104.88;5033230;28;20218;-51
2023/09/23 02:00:08;;;;;;;15.60;6.07;;;;;;;20.15;100.00;65102.44;5032870;28;20194;-54
2023/09/23 02:02:33;;;;;;;15.88;6.72;;;;;;;20.28;100.00;65114.78;5032566;28;20218;-51
2023/09/23 02:04:59;;;;;;;14.32;6.13;;;;;;;19.98;100.00;65084.19;5032689;28;20194;-52
2023/09/23 02:07:26;;;;;;;17.00;6.07;;;;;;;19.89;100.00;65072.25;5032643;28;20313;-52
2023/09/23 02:09:52;;;;;;;13.55;6.70;;;;;;;20.22;100.00;65105.59;5032690;28;20209;-51
2023/09/23 02:12:18;;;;;;;11.27;6.03;;;;;;;19.85;100.00;65070.41;5032513;28;20223;-51
2023/09/23 02:14:44;;;;;;;12.32;5.63;;;;;;;20.09;100.00;65093.78;5032739;28;20696;-51
2023/09/23 02:17:09;;;;;;;9.50;5.65;;;;;;;19.88;100.00;65073.69;5032917;28;20288;-51
2023/09/23 02:19:35;;;;;;;11.52;5.63;;;;;;;19.76;100.00;65060.44;5032589;28;20287;-51
2023/09/23 02:22:05;;;;;;;12.25;6.45;;;;;;;19.81;100.00;65063.44;5031310;28;20213;-52
2023/09/23 02:24:33;;;;;;;12.18;5.90;;;;;;;19.82;100.00;65063.97;5032397;28;20398;-51
2023/09/23 02:26:59;;;;;;;13.15;7.03;;;;;;;19.87;100.00;65072.59;5032419;28;20722;-54
2023/09/23 02:29:24;;;;;;;11.38;5.60;;;;;;;19.89;100.00;65074.81;5032296;28;20210;-54
2023/09/23 02:31:50;;;;;;;18.70;6.60;;;;;;;19.74;100.00;65055.69;5032251;28;20296;-51
2023/09/23 02:34:24;;;;;;;15.52;6.28;;;;;;;19.57;100.00;65036.94;5032316;28;20293;-52
2023/09/23 02:36:50;;;;;;;11.77;6.13;;;;;;;19.73;100.00;65054.59;5032403;28;20254;-51
2023/09/23 02:39:19;;;;;;;16.98;5.53;;;;;;;19.85;100.00;65067.84;5032253;28;20256;-51
2023/09/23 02:41:50;;;;;;;16.70;6.60;;;;;;;19.73;100.00;65054.59;5032222;28;20569;-51
2023/09/23 02:44:20;;;;;;;14.90;6.20;;;;;;;19.73;100.00;65054.59;5032148;28;20194;-52
2023/09/23 02:46:46;;;;;;;14.40;6.00;;;;;;;19.65;100.00;65045.75;5030438;28;20217;-51
2023/09/23 02:49:16;;;;;;;12.40;5.28;;;;;;;19.59;100.00;65039.13;5032143;28;20574;-54
2023/09/23 02:51:42;;;;;;;18.00;6.28;;;;;;;19.48;100.00;65026.97;5032150;28;20221;-51
2023/09/23 02:54:11;;;;;;;10.93;6.03;;;;;;;19.63;100.00;65040.44;5032184;28;20256;-51
2023/09/23 02:56:37;;;;;;;14.25;5.90;;;;;;;19.53;100.00;65035.06;5031801;28;20248;-51
2023/09/23 02:59:21;;;;;;;18.58;5.45;;;;;;;19.57;100.00;65033.81;5030576;28;20198;-52
2023/09/23 03:01:53;;;;;;;14.60;5.60;;;;;;;19.53;100.00;65032.50;5030765;28;20214;-51
2023/09/23 03:04:23;;;;;;;17.83;5.78;;;;;;;19.37;100.00;65012.28;5031970;28;20202;-51
2023/09/23 03:06:50;;;;;;;17.45;6.38;;;;;;;19.52;100.00;65033.38;5032142;28;20233;-53
2023/09/23 03:09:20;;;;;;;19.50;5.72;;;;;;;19.55;100.00;65031.59;5031694;28;20646;-51
2023/09/23 03:11:55;;;;;;;12.55;5.72;;;;;;;19.47;100.00;65025.88;5031995;28;20289;-51
2023/09/23 03:14:23;;;;;;;18.05;5.80;;;;;;;19.46;100.00;65027.31;5030674;28;20213;-52
2023/09/23 03:16:54;;;;;;;12.10;5.65;;;;;;;19.62;100.00;65042.44;5031531;28;20210;-52
2023/09/23 03:19:26;;;;;;;22.27;6.38;;;;;;;19.58;100.00;65037.47;5030583;28;20235;-52
2023/09/23 03:21:56;;;;;;;22.73;6.43;;;;;;;19.56;100.00;65035.25;5031858;28;20265;-52
2023/09/23 03:24:25;;;;;;;13.63;5.32;;;;;;;19.71;100.00;65054.38;5031621;28;20229;-52
2023/09/23 03:26:55;;;;;;;12.18;5.55;;;;;;;19.77;100.00;65059.00;5031434;28;20218;-51
2023/09/23 03:29:28;;;;;;;20.25;6.05;;;;;;;19.57;100.00;65036.94;5031635;28;20195;-51
2023/09/23 03:31:55;;;;;;;12.13;5.68;;;;;;;19.67;100.00;65049.97;5030122;28;20202;-51
2023/09/23 03:34:21;;;;;;;13.20;6.28;;;;;;;19.50;100.00;65029.19;5031065;28;20210;-52
2023/09/23 03:36:47;;;;;;;16.65;6.90;;;;;;;19.64;100.00;65046.66;5031393;28;20266;-52
2023/09/23 03:39:13;;;;;;;16.83;6.20;;;;;;;19.57;100.00;65038.94;5031355;28;20202;-51
2023/09/23 03:41:38;;;;;;;14.15;5.82;;;;;;;19.61;100.00;65038.22;5031190;28;20344;-51
2023/09/23 03:44:07;;;;;;;15.25;5.88;;;;;;;19.62;100.00;65042.44;5031205;28;20619;-51
2023/09/23 03:46:33;;;;;;;12.07;6.22;;;;;;;19.63;100.00;65046.09;5030943;28;20237;-51
2023/09/23 03:49:00;;;;;;;18.67;7.03;;;;;;;19.67;100.00;65049.97;5030892;28;20253;-51
2023/09/23 03:51:26;;;;;;;14.13;5.80;;;;;;;19.61;100.00;65040.78;5031356;28;20206;-52
2023/09/23 03:53:52;;;;;;;13.05;5.70;;;;;;;19.54;100.00;65033.03;5030986;28;20204;-51
2023/09/23 03:56:27;;;;;;;20.33;5.93;;;;;;;19.45;100.00;65023.69;5031166;28;20296;-51
2023/09/23 03:58:55;;;;;;;17.42;5.93;;;;;;;19.46;100.00;65027.31;5031291;28;20162;-52
2023/09/23 04:01:23;;;;;;;19.20;6.22;;;;;;;19.48;100.00;65026.97;5031213;28;20313;-53
2023/09/23 04:03:52;;;;;;;13.43;5.65;;;;;;;19.47;100.00;65025.88;5030893;28;20209;-52
2023/09/23 04:06:17;;;;;;;17.15;5.93;;;;;;;19.48;100.00;65029.53;5030721;28;20301;-51
2023/09/23 04:08:43;;;;;;;16.98;6.55;;;;;;;19.38;100.00;65015.38;5030851;28;20305;-51
2023/09/23 04:11:10;;;;;;;11.63;4.82;;;;;;;19.31;100.00;65010.19;5029545;28;20202;-52
2023/09/23 04:13:37;;;;;;;15.45;5.97;;;;;;;19.35;100.00;65017.75;5030821;28;20259;-52
2023/09/23 04:16:03;;;;;;;21.65;6.45;;;;;;;19.35;100.00;65015.19;5030833;28;20560;-51
2023/09/23 04:18:31;;;;;;;12.48;5.30;;;;;;;19.25;100.00;65004.66;5030785;28;20206;-52
2023/09/23 04:20:57;;;;;;;17.63;5.32;;;;;;;19.24;100.00;65006.13;5029393;28;20206;-52
2023/09/23 04:23:23;;;;;;;15.45;6.30;;;;;;;19.30;100.00;65009.63;5030635;28;20209;-52
2023/09/23 04:25:50;;;;;;;13.68;5.78;;;;;;;19.35;100.00;65012.06;5029140;28;20202;-52
2023/09/23 04:28:18;;;;;;;14.18;5.75;;;;;;;19.31;100.00;65010.72;5030573;28;20210;-59
2023/09/23 04:30:43;;;;;;;15.70;6.13;;;;;;;19.29;100.00;65005.97;5029311;28;20209;-51
2023/09/23 04:33:12;;;;;;;15.82;5.82;;;;;;;19.14;100.00;64989.97;5029089;28;20209;-51
2023/09/23 04:35:38;;;;;;;13.98;5.28;;;;;;;19.12;100.00;64992.31;5029008;28;20202;-52
2023/09/23 04:38:03;;;;;;;18.77;5.40;;;;;;;19.13;100.00;64988.88;5030448;28;20284;-52
2023/09/23 04:40:29;;;;;;;13.30;5.35;;;;;;;19.01;100.00;64975.06;5029218;28;20198;-51
2023/09/23 04:42:55;;;;;;;14.10;6.10;;;;;;;18.87;100.00;64959.63;5030396;28;20704;-55
2023/09/23 04:45:20;;;;;;;13.50;6.22;;;;;;;18.95;100.00;64969.00;5028172;28;20285;-51
2023/09/23 04:47:50;;;;;;;18.13;6.85;;;;;;;18.96;100.00;64967.00;5030290;28;20218;-51
2023/09/23 04:50:17;;;;;;;13.95;5.43;;;;;;;19.15;100.00;64993.06;5030307;28;20631;-50
2023/09/23 04:52:44;;;;;;;15.07;6.05;;;;;;;19.28;100.00;65005.44;5029946;28;20300;-52
2023/09/23 04:55:09;;;;;;;13.27;6.00;;;;;;;19.27;100.00;65004.31;5030215;28;20197;-52
2023/09/23 04:57:38;;;;;;;17.17;6.60;;;;;;;19.32;100.00;65009.28;5030379;28;20229;-55
2023/09/23 05:00:04;;;;;;;17.90;7.13;;;;;;;19.18;100.00;64996.41;5030252;28;20209;-51
2023/09/23 05:02:31;;;;;;;16.23;5.82;;;;;;;19.42;100.00;65019.78;5030308;28;20222;-51
2023/09/23 05:04:57;;;;;;;16.58;6.05;;;;;;;19.50;100.00;65029.19;5030173;28;20220;-51
2023/09/23 05:07:26;;;;;;;12.35;6.57;;;;;;;19.25;100.00;65002.09;5028674;28;20598;-52
2023/09/23 05:09:55;;;;;;;13.75;6.15;;;;;;;19.29;100.00;65005.97;5030137;28;20740;-51
2023/09/23 05:12:22;;;;;;;16.98;6.82;;;;;;;19.30;100.00;65009.63;5029774;28;20727;-52
2023/09/23 05:14:47;;;;;;;15.85;7.63;;;;;;;19.46;100.00;65024.78;5030175;28;20197;-52
2023/09/23 05:17:15;;;;;;;16.45;7.25;;;;;;;19.62;100.00;65045.00;5030372;28;20226;-51
2023/09/23 05:19:42;;;;;;;15.27;6.78;;;;;;;19.58;100.00;65038.03;5028617;28;20305;-51
2023/09/23 05:22:10;;;;;;;12.23;6.68;;;;;;;19.44;100.00;65022.56;5030026;28;20202;-50
2023/09/23 05:24:35;;;;;;;15.38;6.53;;;;;;;19.38;100.00;65013.38;5029819;28;20672;-59
2023/09/23 05:27:01;;;;;;;15.00;7.28;;;;;;;19.58;100.00;65040.56;5029706;28;20218;-52
2023/09/23 05:29:26;;;;;;;16.15;7.20;;;;;;;19.59;100.00;65041.13;5030055;28;20220;-50
2023/09/23 05:31:52;;;;;;;20.08;8.60;;;;;;;19.54;100.00;65036.16;5029668;28;20238;-51
2023/09/23 05:34:21;;;;;;;17.05;8.00;;;;;;;19.66;100.00;65046.28;5029797;28;20202;-55
2023/09/23 05:36:46;;;;;;;15.32;7.35;;;;;;;19.62;100.00;65042.44;5029994;28;20301;-51
2023/09/23 05:39:15;;;;;;;17.70;7.05;;;;;;;19.75;100.00;65056.81;5029716;28;20234;-51
2023/09/23 05:41:41;;;;;;;15.60;6.85;;;;;;;19.93;100.00;65076.69;5028257;28;20210;-51
2023/09/23 05:44:07;;;;;;;13.85;6.90;;;;;;;20.01;100.00;65082.97;5029597;28;20301;-51
2023/09/23 05:46:37;;;;;;;15.98;6.53;;;;;;;20.16;100.00;65101.53;5028103;28;20217;-52
2023/09/23 05:49:05;;;;;;;19.02;6.75;;;;;;;20.31;100.00;65117.56;5012373;28;20225;-51
2023/09/23 05:51:35;;;;;;;16.60;6.55;;;;;;;20.15;100.00;65100.44;5029746;28;20375;-51
2023/09/23 05:54:01;;;;;;;25.35;6.95;;;;;;;20.11;100.00;65093.44;5029594;28;20206;-50
2023/09/23 05:56:27;;;;;;;17.52;6.10;;;;;;;20.18;100.00;65108.84;5030757;28;20210;-51
2023/09/23 05:58:53;;;;;;;17.35;5.93;;;;;;;20.40;100.00;65127.53;5032937;28;20228;-50
2023/09/23 06:01:18;;;;;;;23.08;5.65;;;;;;;20.44;100.00;65131.94;5032770;28;20213;-52
2023/09/23 06:03:44;;;;;;;16.52;5.82;;;;;;;20.31;100.00;65118.13;5032725;28;20198;-51
2023/09/23 06:06:11;;;;;;;17.58;5.65;;;;;;;20.43;100.00;65130.81;5032788;28;20206;-52
2023/09/23 06:08:37;;;;;;;13.38;5.55;;;;;;;20.53;97.99;65139.31;5032692;28;20305;-51
2023/09/23 06:11:04;;;;;;;16.02;5.68;;;;;;;20.51;100.00;65139.66;5032642;28;20213;-52
2023/09/23 06:13:37;;;;;;;17.30;5.90;;;;;;;20.65;97.09;65155.69;5031289;28;20271;-50
2023/09/23 06:16:03;;;;;;;14.32;5.57;;;;;;;20.70;95.40;65158.66;5032338;28;20225;-51
2023/09/23 06:18:30;;;;;;;13.98;5.68;;;;;;;20.77;95.50;65165.84;5031162;28;20585;-51
2023/09/23 06:21:02;;;;;;;19.27;6.32;;;;;;;20.80;97.93;65169.72;5032873;28;20230;-53
2023/09/23 06:23:28;;;;;;;13.25;5.40;;;;;;;21.07;100.00;65201.59;5032545;28;20263;-53
2023/09/23 06:25:59;;;;;;;15.73;5.97;;;;;;;21.29;99.68;65225.91;5031180;28;20198;-53
2023/09/23 06:28:27;;;;;;;16.00;5.90;;;;;;;21.31;94.84;65225.56;5032296;28;20225;-53
2023/09/23 06:30:57;;;;;;;10.60;5.03;;;;;;;21.23;94.37;65216.72;5032405;28;20233;-53
2023/09/23 06:33:23;;;;;;;17.30;6.15;;;;;;;21.10;95.81;65204.34;5032340;28;20286;-54
2023/09/23 06:35:49;;;;;;;12.52;5.88;;;;;;;21.13;95.03;65207.69;5032058;28;20210;-54
2023/09/23 06:38:17;;;;;;;16.05;5.53;;;;;;;21.08;94.99;65202.69;5031001;28;20210;-53
2023/09/23 06:40:42;;;;;;;12.45;5.43;;;;;;;21.24;99.71;65222.41;5030882;28;20340;-53
2023/09/23 06:43:08;;;;;;;21.95;6.07;;;;;;;21.22;100.00;65218.19;5031944;28;20279;-53
2023/09/23 06:45:33;;;;;;;11.95;5.78;;;;;;;21.30;96.52;65227.03;5032383;28;20253;-52
2023/09/23 06:47:59;;;;;;;11.80;5.57;;;;;;;21.18;99.10;65213.75;5032173;28;20206;-55
2023/09/23 06:50:25;;;;;;;13.13;5.43;;;;;;;21.39;100.00;65236.97;5030983;28;20202;-58
2023/09/23 06:52:50;;;;;;;16.55;5.78;;;;;;;21.43;100.00;65240.84;5032236;28;20221;-53
2023/09/23 06:55:16;;;;;;;17.75;5.68;;;;;;;21.68;98.04;65265.94;5032306;28;20198;-54
2023/09/23 06:57:42;;;;;;;14.73;5.90;;;;;;;21.58;96.59;65257.44;5032254;28;20731;-53
2023/09/23 07:00:09;;;;;;;10.63;5.00;;;;;;;21.49;96.95;65248.03;5032098;28;20221;-53
2023/09/23 07:02:34;;;;;;;14.43;6.35;;;;;;;21.67;95.83;65262.81;5031751;28;20220;-54
2023/09/23 07:05:01;;;;;;;18.23;5.30;;;;;;;21.62;95.35;65261.88;5031811;28;20285;-53
2023/09/23 07:07:27;;;;;;;18.55;5.60;;;;;;;21.60;95.82;65262.78;5031461;28;20305;-53
2023/09/23 07:09:52;;;;;;;16.50;6.50;;;;;;;21.66;97.20;65264.28;5031551;28;20244;-53
2023/09/23 07:12:18;;;;;;;19.92;6.65;;;;;;;21.96;94.82;65296.41;5031883;28;20250;-53
2023/09/23 07:14:44;;;;;;;18.95;5.97;;;;;;;21.75;95.65;65276.78;5031744;28;20182;-52
2023/09/23 07:17:09;;;;;;;16.73;6.05;;;;;;;21.70;96.47;65271.28;5056916;22;20312;-52
2023/09/23 07:19:35;;;;;;;14.32;5.45;;;;;;;21.77;96.58;65277.91;5071538;28;20702;-53
2023/09/23 07:22:01;;;;;;;18.55;6.50;;;;;;;21.92;97.54;65295.06;5062474;28;20605;-54
2023/09/23 07:24:27;;;;;;;13.43;5.53;;;;;;;22.00;96.93;65303.41;5051464;28;20220;-54
2023/09/23 07:26:57;;;;;;;15.68;5.70;;;;;;;22.02;97.51;65303.56;5051307;28;20691;-53
2023/09/23 07:29:24;;;;;;;21.23;6.43;;;;;;;21.95;98.40;65295.84;5051448;28;20213;-52
2023/09/23 07:31:51;;;;;;;19.10;6.15;;;;;;;22.01;97.49;65302.47;5033486;28;20205;-53
2023/09/23 07:34:16;;;;;;;16.65;8.63;;;;;;;22.27;96.43;65331.25;5051192;28;20320;-53
2023/09/23 07:36:43;;;;;;;15.63;6.18;;;;;;;22.52;91.57;65360.94;5051129;28;20608;-53
2023/09/23 07:39:10;;;;;;;20.42;6.18;;;;;;;22.62;90.29;65368.91;5051387;28;20189;-54
2023/09/23 07:41:37;;;;;;;14.38;5.82;;;;;;;22.81;86.99;65390.50;5051253;28;20279;-57
2023/09/23 07:44:03;;;;;;;19.13;5.70;;;;;;;22.89;83.80;65398.81;5051064;28;20198;-53
2023/09/23 07:46:30;;;;;;;20.48;5.72;;;;;;;22.93;90.47;65400.66;5033080;28;20224;-54
2023/09/23 07:48:55;;;;;;;12.35;5.80;;;;;;;23.14;87.79;65427.06;5050890;28;20308;-54
2023/09/23 07:51:21;;;;;;;12.13;6.05;;;;;;;23.40;84.09;65457.34;5050846;28;20220;-58
2023/09/23 07:53:47;;;;;;;18.38;6.00;;;;;;;23.37;80.31;65451.44;5050995;28;20280;-54
2023/09/23 07:56:12;;;;;;;21.95;5.75;;;;;;;23.29;81.80;65445.69;5050632;28;20662;-54
2023/09/23 07:58:38;;;;;;;18.85;6.95;;;;;;;23.40;79.88;65457.91;5050802;28;20198;-55
2023/09/23 08:01:04;;;;;;;19.42;6.03;;;;;;;23.40;81.51;65455.31;5050827;28;20753;-56
2023/09/23 08:03:31;;;;;;;18.17;6.50;;;;;;;23.37;79.96;65454.03;5050624;28;20208;-58
2023/09/23 08:05:56;;;;;;;19.73;6.25;;;;;;;23.37;80.08;65454.03;5050571;28;20216;-55
2023/09/23 08:08:22;;;;;;;21.42;6.45;;;;;;;23.58;80.50;65477.28;5050834;28;20209;-54
2023/09/23 08:10:50;;;;;;;18.50;6.50;;;;;;;23.80;78.67;65499.09;5050756;28;20797;-55
2023/09/23 08:13:20;;;;;;;18.60;6.30;;;;;;;23.83;82.62;65505.00;5050481;28;20214;-54
2023/09/23 08:15:46;;;;;;;17.67;6.25;;;;;;;23.96;82.26;65519.97;5032832;28;20267;-54
2023/09/23 08:18:15;;;;;;;22.73;6.15;;;;;;;24.05;78.90;65526.84;5050356;28;20209;-54
2023/09/23 08:20:41;;;;;;;20.50;6.35;;;;;;;24.07;76.70;65529.63;5031307;28;20201;-53
2023/09/23 08:23:07;;;;;;;14.85;5.95;;;;;;;24.22;77.10;65548.25;5050462;28;20295;-55
2023/09/23 08:25:33;;;;;;;11.30;5.88;;;;;;;24.38;74.53;65562.88;5050244;28;20210;-54
2023/09/23 08:27:59;;;;;;;16.20;5.90;;;;;;;24.75;76.37;65603.94;5050361;28;20209;-55
2023/09/23 08:30:25;;;;;;;18.83;5.85;;;;;;;24.96;73.45;65629.81;5050485;28;20245;-55
2023/09/23 08:32:51;;;;;;;14.45;5.93;;;;;;;25.24;71.86;65657.75;5050372;28;20216;-55
2023/09/23 08:35:16;;;;;;;22.33;7.03;;;;;;;25.38;73.44;65673.84;5050308;28;20196;-55
2023/09/23 08:37:45;;;;;;;18.70;6.63;;;;;;;25.59;72.29;65697.16;5050388;28;20217;-55
2023/09/23 08:40:12;;;;;;;16.42;6.57;;;;;;;25.95;68.33;65738.63;5050620;28;20284;-55
2023/09/23 08:42:39;;;;;;;17.83;6.25;;;;;;;26.10;66.85;65752.72;5050555;28;20221;-54
2023/09/23 08:45:10;;;;;;;16.50;5.80;;;;;;;26.27;67.46;65772.16;5050443;28;20284;-54
2023/09/23 08:47:37;;;;;;;14.82;6.22;;;;;;;26.44;66.70;65790.47;5032280;28;20221;-54
2023/09/23 08:50:06;;;;;;;18.70;5.75;;;;;;;26.69;62.15;65817.69;5050202;28;20197;-54
2023/09/23 08:52:33;;;;;;;17.45;6.80;;;;;;;26.82;64.97;65832.72;5032126;28;20257;-54
2023/09/23 08:55:00;;;;;;;24.50;6.45;;;;;;;27.03;65.52;65856.06;5050388;28;20212;-54
2023/09/23 08:57:26;;;;;;;14.02;6.50;;;;;;;27.33;63.88;65883.69;5050036;28;20220;-54
2023/09/23 08:59:52;;;;;;;21.98;6.15;;;;;;;27.54;61.36;65911.66;5050005;28;20228;-54
2023/09/23 09:02:22;;;;;;;14.63;5.18;;;;;;;27.83;60.25;65941.34;5050181;28;20691;-54
2023/09/23 09:04:52;;;;;;;16.63;5.55;;;;;;;27.81;59.46;65939.13;5050183;28;20216;-53
2023/09/23 09:07:18;;;;;;;16.63;6.28;;;;;;;27.49;58.57;65906.69;5050020;28;20209;-55
2023/09/23 09:09:43;;;;;;;24.65;8.07;;;;;;;27.96;58.15;65958.97;5049951;28;20609;-54
2023/09/23 09:12:09;;;;;;;19.80;5.88;;;;;;;28.12;55.99;65974.16;5032083;28;20202;-54
2023/09/23 09:14:35;;;;;;;23.45;6.78;;;;;;;28.66;54.88;66036.31;5050083;28;20204;-54
2023/09/23 09:17:00;;;;;;;13.52;5.97;;;;;;;28.86;54.45;66055.44;5050066;28;20205;-54
2023/09/23 09:19:27;;;;;;;14.35;5.57;;;;;;;28.81;53.06;66052.44;5049897;28;20213;-56
2023/09/23 09:21:54;;;;;;;13.32;5.63;;;;;;;29.15;51.29;66090.31;5032179;28;20221;-55
2023/09/23 09:24:22;;;;;;;17.08;6.15;;;;;;;29.26;49.39;66096.81;5049702;28;20262;-56
2023/09/23 09:26:49;;;;;;;20.27;5.65;;;;;;;29.49;51.18;66128.19;5050002;28;20221;-54
2023/09/23 09:29:16;;;;;;;13.38;5.93;;;;;;;29.31;47.42;66108.16;5049619;28;20209;-54
2023/09/23 09:31:44;;;;;;;19.33;5.22;;;;;;;29.59;47.34;66136.72;5033376;28;20241;-54
2023/09/23 09:34:11;;;;;;;17.40;6.18;;;;;;;29.64;49.22;66141.75;5035154;28;20320;-54
2023/09/23 09:36:40;;;;;;;21.25;6.32;;;;;;;30.04;47.83;66183.19;5052994;28;20217;-54
2023/09/23 09:39:08;;;;;;;20.08;5.95;;;;;;;30.24;47.53;66210.69;5053135;28;20220;-55
2023/09/23 09:41:50;;;;;;;16.48;6.40;;;;;;;30.45;46.43;66231.50;5035718;28;20275;-54
2023/09/23 09:44:22;;;;;;;19.08;5.55;;;;;;;30.21;44.45;66204.72;5053036;28;20205;-54
2023/09/23 09:46:50;;;;;;;16.75;5.10;;;;;;;30.22;44.88;66208.44;5034965;28;20722;-54
2023/09/23 09:49:16;;;;;;;18.40;5.80;;;;;;;30.29;46.18;66216.25;5052798;28;20221;-54
2023/09/23 09:51:46;;;;;;;19.98;6.32;;;;;;;30.60;44.72;66250.84;5051403;28;20205;-53
2023/09/23 09:54:13;;;;;;;18.00;6.20;;;;;;;30.85;42.73;66276.13;5053031;28;20180;-54
2023/09/23 09:56:40;;;;;;;21.30;6.70;;;;;;;30.61;42.64;66246.72;5053212;28;20229;-54
2023/09/23 09:59:06;;;;;;;17.92;5.78;;;;;;;30.81;44.09;66271.63;5052681;28;20193;-54
2023/09/23 10:01:34;;;;;;;15.00;5.90;;;;;;;31.43;44.36;66338.22;5052754;28;20300;-54
2023/09/23 10:04:09;;;;;;;20.33;6.20;;;;;;;31.95;45.24;66400.38;5052787;28;20204;-55
2023/09/23 10:06:39;;;;;;;16.30;5.95;;;;;;;32.48;42.70;66454.34;5052483;28;20217;-52
2023/09/23 10:09:15;;;;;;;20.15;5.53;;;;;;;32.87;42.54;66503.09;5052640;28;20300;-54
2023/09/23 10:11:41;;;;;;;19.35;6.63;;;;;;;32.92;42.23;66506.09;5034223;28;20224;-54
2023/09/23 10:14:17;;;;;;;18.40;6.22;;;;;;;32.84;40.67;66494.53;5052389;28;20522;-56
2023/09/23 10:16:59;;;;;;;18.60;5.97;;;;;;;33.01;41.10;66518.75;5052542;28;20209;-54
2023/09/23 10:19:41;;;;;;;17.33;5.60;;;;;;;33.24;41.86;66540.72;5034886;28;20642;-55
2023/09/23 10:22:18;;;;;;;16.90;5.68;;;;;;;32.85;40.92;66492.47;5053774;28;20833;-55
2023/09/23 10:24:44;;;;;;;17.92;6.13;;;;;;;32.76;39.54;66490.81;5051657;28;20209;-53
2023/09/23 10:27:10;;;;;;;12.97;5.53;;;;;;;33.08;38.93;66520.22;5034150;28;20286;-52
2023/09/23 10:29:45;;;;;;;17.50;5.47;;;;;;;33.17;40.58;66530.84;5036660;28;20528;-55
2023/09/23 10:32:15;;;;;;;17.58;5.93;;;;;;;33.40;40.09;66558.59;5052841;28;20231;-55
2023/09/23 10:34:58;;;;;;;18.65;6.63;;;;;;;33.56;37.63;66577.06;5035238;28;20234;-53
2023/09/23 10:37:37;;;;;;;17.25;5.68;;;;;;;33.79;38.28;66599.59;5034179;28;20304;-52
2023/09/23 10:40:18;;;;;;;18.45;5.45;;;;;;;33.67;38.69;66589.38;5034796;28;20314;-53
2023/09/23 10:42:51;;;;;;;21.17;5.43;;;;;;;33.29;37.22;66544.25;5033364;28;20213;-55
2023/09/23 10:45:50;;;;;;;25.52;6.10;;;;;;;33.19;35.50;66535.16;5034314;28;20667;-56
2023/09/23 10:48:21;;;;;;;23.30;5.85;;;;;;;33.45;37.21;66561.56;5033490;28;20213;-56
2023/09/23 10:50:47;;;;;;;15.38;4.78;;;;;;;33.47;36.53;66566.44;5051763;28;20208;-55
2023/09/23 10:53:14;;;;;;;17.08;5.10;;;;;;;33.28;36.09;66545.19;5051816;28;20213;-54
2023/09/23 10:55:40;;;;;;;26.85;6.05;;;;;;;33.84;36.32;66608.34;5051721;28;20224;-54
2023/09/23 10:58:10;;;;;;;14.88;4.93;;;;;;;34.00;34.95;66625.69;5033982;28;20292;-55
2023/09/23 11:00:41;;;;;;;18.45;5.50;;;;;;;34.15;34.78;66639.84;5051551;28;20197;-56
2023/09/23 11:03:11;;;;;;;21.52;5.55;;;;;;;34.21;34.98;66646.00;5033637;28;20206;-55
2023/09/23 11:05:39;;;;;;;16.48;4.80;;;;;;;34.29;34.62;66655.50;5051588;28;20194;-54
2023/09/23 11:08:06;;;;;;;17.83;5.43;;;;;;;34.47;34.70;66675.63;5051408;28;20218;-56
2023/09/23 11:10:34;;;;;;;21.60;5.28;;;;;;;34.13;34.23;66642.28;5051344;28;20292;-58
2023/09/23 11:13:00;;;;;;;20.48;5.63;;;;;;;34.38;33.64;66665.56;5051641;28;20212;-56
2023/09/23 11:15:25;;;;;;;21.70;5.65;;;;;;;34.32;33.35;66655.69;5051596;28;20201;-54
2023/09/23 11:17:56;;;;;;;23.25;7.72;;;;;;;34.11;35.36;66635.38;5033599;28;20225;-55
2023/09/23 11:20:33;;;;;;;19.92;5.80;;;;;;;34.52;33.62;66681.22;5051347;28;20209;-54
2023/09/23 11:23:03;;;;;;;22.00;5.05;;;;;;;34.78;32.16;66709.22;5051280;28;20296;-54
2023/09/23 11:25:42;;;;;;;16.73;5.50;;;;;;;34.96;33.09;66729.91;5051203;28;20671;-55